Flight Track Log - Related Links

Times and Time Zones

All times are in EDT time to prevent confusion due to time zone crossing. See the C-GONN flight status page for this flight to view local times or setup timezone preferences in your user account.

Time Position Orientation Groundspeed Altitude Reporting Facility
EDT Latitude Longitude Course Direction KTS MPH feet Rate Location/Type
Tue 08:05:33 PM 50.7000 -120.4833 98° East 110 127 2,900  Level Vancouver Center
Tue 08:06:33 PM 50.6833 -120.4833 180° South 110 127 4,300 1,250 Climbing Vancouver Center
Tue 08:07:33 PM 50.6500 -120.4333 136° Southeast 150 173 5,400 1,300 Climbing Vancouver Center
Tue 08:08:33 PM 50.6500 -120.3500 90° East 150 173 6,900 1,400 Climbing Vancouver Center
Tue 08:09:33 PM 50.6500 -120.3000 90° East 150 173 8,200 1,300 Climbing Vancouver Center
Tue 08:10:00 PM 50.6829 -119.8447 98° East  Level FlightAware Approximate
Tue 08:10:33 PM 50.6500 -120.2167 90° East 150 173 9,500  Level Vancouver Center
Tue 08:11:33 PM 50.6500 -120.1667 90° East 150 173 10,600 1,150 Climbing Vancouver Center
Tue 08:12:33 PM 50.6500 -120.0833 90° East 150 173 11,800 1,150 Climbing Vancouver Center
Tue 08:13:33 PM 50.6667 -120.0000 72° East 160 184 12,900 1,000 Climbing Vancouver Center
Tue 08:14:33 PM 50.6667 -119.9500 90° East 170 196 13,800 1,050 Climbing Vancouver Center
Tue 08:15:33 PM 50.6500 -119.8500 105° East 190 219 15,000 900 Climbing Vancouver Center
Tue 08:16:33 PM 50.6500 -119.7667 90° East 200 230 15,600 750 Climbing Vancouver Center
Tue 08:17:33 PM 50.6500 -119.6667 90° East 210 242 16,500 950 Climbing Vancouver Center
Tue 08:18:33 PM 50.6500 -119.5833 90° East 220 253 17,500 750 Climbing Vancouver Center
Tue 08:19:33 PM 50.6500 -119.4833 90° East 220 253 18,000 791 Climbing Vancouver Center
Tue 08:20:42 PM 50.6333 -119.3667 103° East 230 265 19,200 884 Climbing Vancouver Center
Tue 08:21:42 PM 50.6333 -119.2667 90° East 230 265 19,900 750 Climbing Vancouver Center
Tue 08:22:42 PM 50.6333 -119.1667 90° East 230 265 20,700 750 Climbing Vancouver Center
Tue 08:23:42 PM 50.6333 -119.0667 90° East 230 265 21,400 750 Climbing Vancouver Center
Tue 08:24:42 PM 50.6167 -118.9833 107° East 230 265 22,200 800 Climbing Vancouver Center
Tue 08:25:42 PM 50.6167 -118.8833 90° East 230 265 23,000 400 Climbing Vancouver Center
Tue 08:26:42 PM 50.6333 -118.7667 77° East 240 276 23,000  Level Vancouver Center
Tue 08:27:42 PM 50.6333 -118.6667 90° East 250 288 23,000  Level Vancouver Center
Tue 08:28:42 PM 50.6167 -118.5333 101° East 260 299 23,000  Level Vancouver Center
Tue 08:29:42 PM 50.6167 -118.4333 90° East 270 311 23,000  Level Vancouver Center
Tue 08:30:42 PM 50.6167 -118.3000 90° East 270 311 23,000  Level Vancouver Center
Tue 08:31:42 PM 50.6000 -118.1833 103° East 270 311 23,000  Level Vancouver Center
Tue 08:32:42 PM 50.6000 -118.0667 90° East 280 322 23,000  Level Vancouver Center
Tue 08:33:42 PM 50.5833 -117.9333 101° East 280 322 23,000  Level Vancouver Center
Tue 08:34:42 PM 50.5833 -117.8167 90° East 280 322 23,000  Level Vancouver Center
Tue 08:35:42 PM 50.5833 -117.7000 90° East 280 322 23,000  Level Vancouver Center
Tue 08:36:42 PM 50.5833 -117.5833 90° East 280 322 23,000  Level Vancouver Center
Tue 08:37:42 PM 50.5833 -117.4500 90° East 280 322 23,000  Level Vancouver Center
Tue 08:38:42 PM 50.5833 -117.3333 90° East 280 322 23,000  Level Vancouver Center
Tue 08:39:42 PM 50.5667 -117.2167 103° East 270 311 23,000  Level Vancouver Center
Tue 08:40:42 PM 50.5667 -117.0833 90° East 280 322 23,000  Level Vancouver Center
Tue 08:41:42 PM 50.5500 -116.9833 105° East 270 311 23,000  Level Vancouver Center
Tue 08:42:42 PM 50.5500 -116.8500 90° East 270 311 23,000  Level Vancouver Center
Tue 08:43:42 PM 50.5500 -116.7500 90° East 270 311 23,000  Level Vancouver Center
Tue 08:44:42 PM 50.5333 -116.6167 101° East 270 311 23,000  Level Vancouver Center
Tue 08:45:42 PM 50.5333 -116.4833 90° East 270 311 23,000  Level Vancouver Center
Tue 08:46:42 PM 50.5167 -116.3833 105° East 270 311 23,000  Level Vancouver Center
Tue 08:47:42 PM 50.5167 -116.2833 90° East 270 311 23,000  Level Vancouver Center
Tue 08:48:42 PM 50.5333 -116.1500 79° East 260 299 23,000  Level Vancouver Center
Tue 08:49:42 PM 50.5667 -116.0667 58° Northeast 250 288 23,000  Level Vancouver Center
Tue 08:50:42 PM 50.5833 -115.9500 77° East 250 288 23,000  Level Vancouver Center
Tue 08:51:42 PM 50.6167 -115.8667 58° Northeast 250 288 23,000 -400 Level Vancouver Center
Tue 08:52:42 PM 50.6500 -115.7500 66° East 250 288 22,200 -800 Descending Vancouver Center
Tue 08:53:42 PM 50.6667 -115.6500 75° East 240 276 21,400 -900 Descending Vancouver Center
Tue 08:54:42 PM 50.6833 -115.5667 72° East 250 288 20,400 -950 Descending Vancouver Center
Tue 08:55:42 PM 50.7167 -115.4500 66° East 260 299 19,500 -850 Descending Vancouver Center
Tue 08:56:42 PM 50.7333 -115.3500 75° East 250 288 18,700 -800 Descending Vancouver Center
Tue 08:57:42 PM 50.7667 -115.2333 66° East 250 288 17,900 -850 Descending Vancouver Center
Tue 08:58:42 PM 50.7833 -115.1500 72° East 250 288 17,000 -850 Descending Vancouver Center
Tue 08:59:42 PM 50.8167 -115.0333 66° East 240 276 16,200 -900 Descending Vancouver Center
Tue 09:00:42 PM 50.8333 -114.9333 75° East 250 288 15,200 -978 Descending Vancouver Center
Tue 09:02:46 PM 50.8833 -114.8000 59° Northeast 260 299 13,200 -1,076 Descending Edmonton Center
Tue 09:03:46 PM 50.9000 -114.7000 75° East 250 288 11,900 -1,350 Descending Edmonton Center
Tue 09:04:46 PM 50.9167 -114.6000 75° East 250 288 10,500 -1,500 Descending Edmonton Center
Tue 09:05:46 PM 50.9833 -114.5000 43° Northeast 230 265 8,900 -1,500 Descending Edmonton Center
Tue 09:06:46 PM 51.0167 -114.4500 43° Northeast 220 253 7,500 -700 Descending Edmonton Center
Tue 09:07:46 PM 51.0667 -114.4167 23° Northeast 220 253 7,500 -150 Level Edmonton Center
Tue 09:08:46 PM 51.1167 -114.3333 46° Northeast 200 230 7,200 -500 Descending Edmonton Center
Tue 09:09:46 PM 51.1500 -114.2667 51° Northeast 190 219 6,500 -900 Descending Edmonton Center
Tue 09:10:46 PM 51.1333 -114.1833 108° East 180 207 5,400 -1,100 Descending Edmonton Center

Login

Don't have an account? Register now (free) for customized features, flight alerts, and more!